METAR Data
IDs: Format: Raw Decoded Include TAF

Data at: 1612 UTC 21 Sep 2018

KDKX 211555Z AUTO 00000KT 10SM CLR 29/20 A3018 RMK A01
KDKX 211535Z AUTO 23005KT 10SM CLR 29/20 A3019 RMK A01
KDKX 211515Z AUTO 22005KT 10SM CLR 29/20 A3020 RMK A01
KDKX 211455Z AUTO 25006KT 10SM CLR 28/21 A3020 RMK A01
KDKX 211435Z AUTO 24005KT 10SM CLR 27/20 A3020 RMK A01
KDKX 211415Z AUTO 25006KT 10SM CLR 27/21 A3020 RMK A01
KDKX 211355Z AUTO 00000KT 10SM CLR 26/22 A3020 RMK A01
KDKX 211335Z AUTO 00000KT 10SM CLR 25/22 A3020 RMK A01
KDKX 211315Z AUTO 00000KT 10SM CLR 23/23 A3020 RMK A01
KDKX 211255Z AUTO 00000KT 10SM CLR 22/22 A3020 RMK A01
KDKX 211235Z AUTO 00000KT 8SM CLR 21/21 A3020 RMK A01
KDKX 211215Z AUTO 00000KT 3SM BR CLR 21/21 A3019 RMK A01
KDKX 211155Z AUTO 00000KT M1/4SM FG VV000 20/20 A3019 RMK A01
KDKX 211135Z AUTO 00000KT M1/4SM FG VV000 20/20 A3019 RMK A01
KDKX 211115Z AUTO 00000KT 1/4SM FG VV002 20/20 A3018 RMK A01
KDKX 211055Z AUTO 00000KT M1/4SM FG BKN002 20/20 A3018 RMK A01
KDKX 211035Z AUTO 00000KT 1 1/4SM BR OVC002 21/21 A3017 RMK A01
KDKX 211015Z AUTO 00000KT 1/4SM FG BKN002 BKN060 20/20 A3017 RMK A01 VIS M1/4V5
KDKX 210955Z AUTO 00000KT M1/4SM FG VV000 21/21 A3016 RMK A01
KDKX 210935Z AUTO 00000KT 1/4SM FG VV002 21/21 A3015 RMK A01
KDKX 210915Z AUTO 00000KT 2 1/2SM BR CLR 20/20 A3015 RMK A01
KDKX 210855Z AUTO 00000KT 1/4SM FG VV002 21/21 A3014 RMK A01
KDKX 210835Z AUTO 00000KT 1/4SM FG VV002 21/21 A3014 RMK A01
KDKX 210815Z AUTO 00000KT 1/2SM FG VV005 21/21 A3013 RMK A01 VIS M1/4V4
KDKX 210755Z AUTO 00000KT 1/2SM FG VV005 21/21 A3014 RMK A01
KDKX 210735Z AUTO 00000KT M1/4SM FG VV000 22/22 A3013 RMK A01 VIS M1/4V2 1/2
KDKX 210715Z AUTO 00000KT 3SM BR SCT080 22/22 A3013 RMK A01
KDKX 210655Z AUTO 00000KT 3SM BR BKN080 22/22 A3013 RMK A01
KDKX 210635Z AUTO 00000KT 5SM BR SCT075 22/22 A3013 RMK A01
KDKX 210615Z AUTO 00000KT 5SM BR FEW080 22/22 A3013 RMK A01
KDKX 210555Z AUTO 00000KT 1 1/2SM BR BKN080 22/22 A3013 RMK A01
KDKX 210535Z AUTO 00000KT 7SM CLR 23/22 A3013 RMK A01
KDKX 210515Z AUTO 00000KT 6SM BR SCT060 23/22 A3013 RMK A01
KDKX 210455Z AUTO 00000KT 8SM SCT055 23/23 A3012 RMK A01
KDKX 210435Z AUTO 00000KT 10SM FEW055 SCT065 SCT075 23/22 A3012 RMK A01
KDKX 210415Z AUTO 00000KT 10SM BKN060 OVC070 23/23 A3012 RMK A01
KDKX 210355Z AUTO 12003KT 10SM BKN055 BKN065 OVC075 23/22 A3012 RMK A01
KDKX 210335Z AUTO 00000KT 10SM BKN055 OVC080 23/23 A3011 RMK A01
KDKX 210315Z AUTO 00000KT 10SM BKN055 BKN065 OVC075 24/23 A3011 RMK A01
KDKX 210255Z AUTO 00000KT 10SM OVC055 24/23 A3011 RMK A01
KDKX 210235Z AUTO 00000KT 10SM BKN055 BKN070 24/23 A3011 RMK A01
KDKX 210215Z AUTO 00000KT 10SM FEW060 SCT070 SCT080 24/23 A3011 RMK A01
KDKX 210155Z AUTO 00000KT 10SM SCT060 BKN075 BKN080 23/23 A3010 RMK A01
KDKX 210135Z AUTO 00000KT 10SM SCT075 24/23 A3010 RMK A01
KDKX 210115Z AUTO 00000KT 10SM CLR 24/23 A3010 RMK A01
KDKX 210055Z AUTO 00000KT 10SM CLR 24/23 A3009 RMK A01
KDKX 210035Z AUTO 00000KT 10SM CLR 24/22 A3009 RMK A01
KDKX 210015Z AUTO 00000KT 10SM CLR 25/22 A3008 RMK A01
KDKX 202355Z AUTO 00000KT 10SM CLR 26/23 A3008 RMK A01
KDKX 202335Z AUTO 00000KT 10SM CLR 26/23 A3007 RMK A01
KDKX 202315Z AUTO 00000KT 10SM CLR 27/23 A3007 RMK A01
KDKX 202255Z AUTO 00000KT 10SM CLR 28/22 A3007 RMK A01
KDKX 202235Z AUTO 00000KT 10SM CLR 29/22 A3007 RMK A01
KDKX 202215Z AUTO 00000KT 10SM CLR 32/20 A3007 RMK A01
KDKX 202155Z AUTO VRB04KT 10SM CLR 33/19 A3007 RMK A01
KDKX 202135Z AUTO VRB03KT 10SM CLR 33/19 A3008 RMK A01
KDKX 202115Z AUTO VRB03KT 10SM CLR 33/19 A3007 RMK A01
KDKX 202055Z AUTO 00000KT 10SM CLR 33/19 A3008 RMK A01
KDKX 202035Z AUTO 25005KT 10SM CLR 33/20 A3008 RMK A01
KDKX 202015Z AUTO 29004KT 10SM CLR 33/19 A3008 RMK A01
KDKX 201955Z AUTO 27005KT CLR 33/20 A3008 RMK A01
KDKX 201935Z AUTO 27007KT 10SM CLR 33/20 A3009 RMK A01
KDKX 201915Z AUTO VRB04KT 10SM FEW050 33/20 A3010 RMK A01
KDKX 201855Z AUTO 00000KT 10SM CLR 33/20 A3010 RMK A01
KDKX 201835Z AUTO 22008KT 10SM CLR 32/21 A3011 RMK A01
KDKX 201815Z AUTO 27005KT 10SM CLR 32/21 A3012 RMK A01
KDKX 201755Z AUTO 23007KT 200V260 10SM CLR 32/22 A3013 RMK A01
KDKX 201735Z AUTO 00000KT 10SM CLR 31/21 A3014 RMK A01
KDKX 201715Z AUTO 26008KT 10SM CLR 31/21 A3015 RMK A01
KDKX 201655Z AUTO 24005KT 10SM CLR 30/21 A3015 RMK A01
KDKX 201635Z AUTO 22006KT 10SM CLR 30/21 A3016 RMK A01
KDKX 201615Z AUTO VRB03KT 10SM CLR 29/21 A3017 RMK A01
KDKX 201555Z AUTO 00000KT 10SM CLR 29/21 A3017 RMK A01
KDKX 201535Z AUTO 00000KT 10SM CLR 28/21 A3018 RMK A01
KDKX 201515Z AUTO 00000KT 10SM CLR 27/22 A3018 RMK A01
KDKX 201455Z AUTO 00000KT 10SM CLR 27/22 A3018 RMK A01
KDKX 201435Z AUTO 00000KT 10SM CLR 26/22 A3017 RMK A01
KDKX 201415Z AUTO 00000KT 10SM CLR 25/21 A3017 RMK A01
KDKX 201355Z AUTO 00000KT 10SM CLR 24/21 A3017 RMK A01
KDKX 201335Z AUTO 00000KT 10SM CLR 24/22 A3016 RMK A01
KDKX 201315Z AUTO 00000KT 9SM CLR 23/22 A3016 RMK A01
KDKX 201255Z AUTO 00000KT 7SM CLR 22/22 A3015 RMK A01
KDKX 201235Z AUTO 00000KT 6SM BR CLR 21/21 A3014 RMK A01
KDKX 201215Z AUTO 00000KT 2 1/2SM BR CLR 21/21 A3014 RMK A01
KDKX 201155Z AUTO 00000KT 1 1/2SM BR BKN002 20/20 A3013 RMK A01
KDKX 201135Z AUTO 00000KT 3/4SM BR OVC002 20/20 A3012 RMK A01
KDKX 201115Z AUTO 00000KT 1 1/4SM BR BKN002 20/20 A3011 RMK A01
KDKX 201055Z AUTO 00000KT 1/2SM BR OVC002 20/20 A3011 RMK A01
KDKX 201035Z AUTO 00000KT 2SM BR SCT002 20/20 A3010 RMK A01
KDKX 201015Z AUTO 00000KT 1 3/4SM BR BKN002 BKN040 20/20 A3010 RMK A01 VIS 1V2 1/2
KDKX 200955Z AUTO 00000KT 2SM BR SCT002 20/20 A3008 RMK A01
KDKX 200935Z AUTO 00000KT 21/21 A3008 RMK A01
KDKX 200915Z AUTO 00000KT 1SM BR SCT003 21/21 A3008 RMK A01
KDKX 200855Z AUTO 00000KT 4SM BR CLR 20/20 A3007 RMK A01
KDKX 200835Z AUTO 00000KT 2SM BR FEW002 20/20 A3006 RMK A01
KDKX 200815Z AUTO 00000KT 1 3/4SM BR OVC002 21/21 A3006 RMK A01
KDKX 200755Z AUTO 00000KT 1/4SM FG BKN002 20/20 A3006 RMK A01
KDKX 200735Z AUTO 00000KT 1/2SM BR BKN003 21/21 A3006 RMK A01 VIS 1/4V2
KDKX 200715Z AUTO 00000KT 1SM BR CLR 21/21 A3006 RMK A01 VIS 1/2V4
KDKX 200655Z AUTO 00000KT 3SM BR CLR 21/21 A3006 RMK A01
KDKX 200635Z AUTO 00000KT 1 1/4SM BR CLR 21/21 A3006 RMK A01
KDKX 200615Z AUTO 00000KT 3SM BR CLR 21/21 A3006 RMK A01
KDKX 200555Z AUTO 00000KT 2 1/2SM BR CLR 22/22 A3006 RMK A01
KDKX 200535Z AUTO 00000KT 2 1/2SM BR CLR 21/21 A3006 RMK A01
KDKX 200515Z AUTO 00000KT 3SM BR CLR 21/21 A3006 RMK A01
KDKX 200455Z AUTO 00000KT 2 1/2SM BR CLR 22/22 A3006 RMK A01
KDKX 200435Z AUTO 00000KT 2 1/2SM BR CLR 21/21 A3006 RMK A01 VIS 1 1/2V5
KDKX 200415Z AUTO 00000KT 5SM BR CLR 21/21 A3007 RMK A01